Time;durP1;ratioP1;P1;durP2;ratioP2;P2;SDS_P1;SDS_P2;PMS_P1;PMS_P2;Temp;Humidity;BMP_temperature;BMP_pressure;BME280_temperature;BME280_humidity;BME280_pressure;Samples;Min_cycle;Max_cycle;Signal;HPM_P1;HPM_P2
2023/12/19 00:00:40;;;;;;;12.77;4.78;;;;;;;;;;5089667;28;20241;-48
2023/12/19 00:03:07;;;;;;;11.50;5.28;;;;;;;;;;5103680;28;20020;-55
2023/12/19 00:05:35;;;;;;;11.20;4.28;;;;;;;;;;5098771;28;20078;-49
2023/12/19 00:08:01;;;;;;;12.75;4.75;;;;;;;;;;5095769;28;20363;-51
2023/12/19 00:10:28;;;;;;;12.07;5.68;;;;;;;;;;5097063;28;20039;-53
2023/12/19 00:12:55;;;;;;;17.13;4.32;;;;;;;;;;5096970;28;20335;-50
2023/12/19 00:15:22;;;;;;;15.35;4.13;;;;;;;;;;5101457;28;20258;-45
2023/12/19 00:17:49;;;;;;;9.43;4.00;;;;;;;;;;5101497;28;20020;-45
2023/12/19 00:20:16;;;;;;;10.18;4.10;;;;;;;;;;5105968;28;20032;-50
2023/12/19 00:22:43;;;;;;;10.35;3.90;;;;;;;;;;5105350;28;20032;-53
2023/12/19 00:25:15;;;;;;;9.82;4.20;;;;;;;;;;5106646;28;20082;-49
2023/12/19 00:27:42;;;;;;;8.13;4.15;;;;;;;;;;5106776;28;20016;-52
2023/12/19 00:30:09;;;;;;;10.95;3.92;;;;;;;;;;5106745;28;20044;-50
2023/12/19 00:32:36;;;;;;;9.85;3.88;;;;;;;;;;5105622;28;20044;-56
2023/12/19 00:35:03;;;;;;;9.60;3.40;;;;;;;;;;5105521;28;20016;-49
2023/12/19 00:37:30;;;;;;;10.13;3.33;;;;;;;;;;5106409;28;20031;-43
2023/12/19 00:39:56;;;;;;;7.82;3.88;;;;;;;;;;5106390;28;20087;-48
2023/12/19 00:42:24;;;;;;;10.27;4.05;;;;;;;;;;5106682;28;20028;-49
2023/12/19 00:44:51;;;;;;;14.35;3.83;;;;;;;;;;5106598;28;20024;-43
2023/12/19 00:47:17;;;;;;;9.43;3.58;;;;;;;;;;5106478;28;20031;-47
2023/12/19 00:49:44;;;;;;;8.10;3.67;;;;;;;;;;5105369;28;20313;-43
2023/12/19 00:52:11;;;;;;;9.27;3.25;;;;;;;;;;5106156;28;20032;-47
2023/12/19 00:54:37;;;;;;;14.50;3.78;;;;;;;;;;5105593;28;20229;-49
2023/12/19 00:57:04;;;;;;;11.82;3.55;;;;;;;;;;5106170;28;20033;-54
2023/12/19 00:59:30;;;;;;;9.65;3.60;;;;;;;;;;5106318;28;20028;-47
2023/12/19 01:01:57;;;;;;;11.85;3.95;;;;;;;;;;5106695;28;20024;-55
2023/12/19 01:04:24;;;;;;;14.75;3.97;;;;;;;;;;5106382;28;20028;-42
2023/12/19 01:06:50;;;;;;;8.82;3.33;;;;;;;;;;5106704;28;20055;-44
2023/12/19 01:09:17;;;;;;;9.73;3.40;;;;;;;;;;5106163;28;20035;-45
2023/12/19 01:11:44;;;;;;;11.38;3.50;;;;;;;;;;5105440;28;20028;-49
2023/12/19 01:14:10;;;;;;;8.52;3.58;;;;;;;;;;5105681;28;20228;-50
2023/12/19 01:16:37;;;;;;;14.65;4.18;;;;;;;;;;5104915;28;20181;-51
2023/12/19 01:19:06;;;;;;;13.52;3.95;;;;;;;;;;5105809;28;20024;-50
2023/12/19 01:21:33;;;;;;;5.18;3.28;;;;;;;;;;5106302;28;20035;-48
2023/12/19 01:23:59;;;;;;;6.82;3.30;;;;;;;;;;5105578;28;20020;-56
2023/12/19 01:26:26;;;;;;;6.47;3.30;;;;;;;;;;5105890;28;20023;-53
2023/12/19 01:28:53;;;;;;;7.55;2.80;;;;;;;;;;5104997;28;20039;-55
2023/12/19 01:31:19;;;;;;;13.48;3.70;;;;;;;;;;5105808;28;20042;-48
2023/12/19 01:33:46;;;;;;;11.25;3.40;;;;;;;;;;5105498;28;20016;-53
2023/12/19 01:36:13;;;;;;;9.02;3.60;;;;;;;;;;5105235;28;20024;-50
2023/12/19 01:38:39;;;;;;;10.57;4.10;;;;;;;;;;5105173;28;20019;-51
2023/12/19 01:41:06;;;;;;;11.00;4.18;;;;;;;;;;5105913;28;20235;-52
2023/12/19 01:43:32;;;;;;;9.32;3.78;;;;;;;;;;5105458;28;20078;-53
2023/12/19 01:45:59;;;;;;;8.95;3.58;;;;;;;;;;5105542;28;20087;-51
2023/12/19 01:48:27;;;;;;;9.20;3.30;;;;;;;;;;5105526;28;20027;-52
2023/12/19 01:50:53;;;;;;;13.43;3.53;;;;;;;;;;5104926;28;20070;-53
2023/12/19 01:53:22;;;;;;;7.40;4.05;;;;;;;;;;5105222;28;20016;-56
2023/12/19 01:55:51;;;;;;;6.55;3.15;;;;;;;;;;5104722;28;20027;-48
2023/12/19 01:58:18;;;;;;;10.70;4.05;;;;;;;;;;5105096;28;20020;-53
2023/12/19 02:00:45;;;;;;;11.18;3.50;;;;;;;;;;5104897;28;20028;-49
2023/12/19 02:03:12;;;;;;;6.40;3.78;;;;;;;;;;5104856;28;20212;-51
2023/12/19 02:05:39;;;;;;;5.22;3.35;;;;;;;;;;5104551;28;20032;-48
2023/12/19 02:08:06;;;;;;;4.47;3.05;;;;;;;;;;5105023;28;20019;-47
2023/12/19 02:10:34;;;;;;;6.63;3.33;;;;;;;;;;5104840;28;20035;-45
2023/12/19 02:13:01;;;;;;;4.63;3.40;;;;;;;;;;5104786;28;20023;-48
2023/12/19 02:15:28;;;;;;;8.70;3.13;;;;;;;;;;5104887;28;20316;-51
2023/12/19 02:17:55;;;;;;;9.55;3.40;;;;;;;;;;5104680;28;20026;-48
2023/12/19 02:20:21;;;;;;;16.15;6.30;;;;;;;;;;5103737;28;20038;-49
2023/12/19 02:22:52;;;;;;;11.10;3.92;;;;;;;;;;5103461;28;20149;-46
2023/12/19 02:25:20;;;;;;;12.40;3.92;;;;;;;;;;5104471;28;20032;-46
2023/12/19 02:27:47;;;;;;;15.65;3.78;;;;;;;;;;5104477;28;20069;-47
2023/12/19 02:30:13;;;;;;;12.10;3.70;;;;;;;;;;5103989;28;20266;-48
2023/12/19 02:32:43;;;;;;;10.95;3.45;;;;;;;;;;5104396;28;20047;-50
2023/12/19 02:35:10;;;;;;;7.47;3.28;;;;;;;;;;5104456;28;20100;-52
2023/12/19 02:37:37;;;;;;;11.43;3.65;;;;;;;;;;5104458;28;20027;-46
2023/12/19 02:40:03;;;;;;;6.07;3.42;;;;;;;;;;5104191;28;20019;-48
2023/12/19 02:42:30;;;;;;;11.02;3.47;;;;;;;;;;5104433;28;20028;-44
2023/12/19 02:44:57;;;;;;;12.55;3.05;;;;;;;;;;5103936;28;20023;-49
2023/12/19 02:47:23;;;;;;;7.45;3.15;;;;;;;;;;5104265;28;20024;-48
2023/12/19 02:49:50;;;;;;;8.65;2.90;;;;;;;;;;5104108;28;20028;-48
2023/12/19 02:52:16;;;;;;;10.18;3.17;;;;;;;;;;5104286;28;20015;-42
2023/12/19 02:54:44;;;;;;;5.75;2.78;;;;;;;;;;5104074;28;20016;-51
2023/12/19 02:57:11;;;;;;;4.70;3.00;;;;;;;;;;5104267;28;20060;-52
2023/12/19 02:59:37;;;;;;;8.55;3.05;;;;;;;;;;5103971;28;20020;-43
2023/12/19 03:02:04;;;;;;;5.90;2.65;;;;;;;;;;5104599;28;20084;-50
2023/12/19 03:04:31;;;;;;;7.65;2.70;;;;;;;;;;5104125;28;20024;-47
2023/12/19 03:06:57;;;;;;;6.18;2.80;;;;;;;;;;5103000;28;20024;-46
2023/12/19 03:09:24;;;;;;;6.07;2.80;;;;;;;;;;5103884;28;20020;-50
2023/12/19 03:12:04;;;;;;;10.52;3.00;;;;;;;;;;5104127;28;20300;-45
2023/12/19 03:14:33;;;;;;;8.02;2.92;;;;;;;;;;5091104;28;20048;-45
2023/12/19 03:17:00;;;;;;;8.27;2.97;;;;;;;;;;5108671;28;20039;-48
2023/12/19 03:19:27;;;;;;;10.63;3.28;;;;;;;;;;5108549;28;20012;-45
2023/12/19 03:21:55;;;;;;;11.68;3.25;;;;;;;;;;5108792;28;20091;-47
2023/12/19 03:24:22;;;;;;;8.80;3.30;;;;;;;;;;5108187;28;20036;-48
2023/12/19 03:26:49;;;;;;;14.60;3.78;;;;;;;;;;5107926;28;20410;-46
2023/12/19 03:29:17;;;;;;;8.73;3.63;;;;;;;;;;5107647;28;20086;-48
2023/12/19 03:31:43;;;;;;;9.75;3.50;;;;;;;;;;5107511;28;20198;-46
2023/12/19 03:34:10;;;;;;;7.88;3.45;;;;;;;;;;5107949;28;20027;-47
2023/12/19 03:36:38;;;;;;;11.05;3.40;;;;;;;;;;5101877;28;20191;-47
2023/12/19 03:39:05;;;;;;;9.15;3.08;;;;;;;;;;5107796;28;20028;-45
2023/12/19 03:41:31;;;;;;;11.00;3.35;;;;;;;;;;5107991;28;20027;-48
2023/12/19 03:43:58;;;;;;;7.10;3.03;;;;;;;;;;5101827;28;20339;-54
2023/12/19 03:46:25;;;;;;;4.28;2.67;;;;;;;;;;5107876;28;20032;-45
2023/12/19 03:48:52;;;;;;;7.00;2.80;;;;;;;;;;5118675;28;20342;-55
2023/12/19 03:51:20;;;;;;;7.75;3.00;;;;;;;;;;5126474;28;20220;-46
2023/12/19 03:53:47;;;;;;;7.22;3.00;;;;;;;;;;5126252;28;20076;-48
2023/12/19 03:56:13;;;;;;;5.80;2.65;;;;;;;;;;5128170;28;20023;-52
2023/12/19 03:58:40;;;;;;;7.70;3.03;;;;;;;;;;5127986;28;20039;-49
2023/12/19 04:01:07;;;;;;;8.15;3.33;;;;;;;;;;5127392;28;20073;-48
2023/12/19 04:03:33;;;;;;;8.23;2.88;;;;;;;;;;5127777;28;20030;-49
2023/12/19 04:06:00;;;;;;;4.75;2.63;;;;;;;;;;5128127;28;20065;-49
2023/12/19 04:08:27;;;;;;;4.30;2.42;;;;;;;;;;5127677;28;20027;-53
2023/12/19 04:10:53;;;;;;;6.72;2.85;;;;;;;;;;5127903;28;20113;-54
2023/12/19 04:13:20;;;;;;;5.28;3.00;;;;;;;;;;5127778;28;20061;-48
2023/12/19 04:15:46;;;;;;;5.70;2.70;;;;;;;;;;5127397;28;20319;-54
2023/12/19 04:18:14;;;;;;;7.07;2.53;;;;;;;;;;5127820;28;20311;-50
2023/12/19 04:20:42;;;;;;;3.47;2.55;;;;;;;;;;5127653;28;20028;-51
2023/12/19 04:23:09;;;;;;;4.28;2.17;;;;;;;;;;5127284;28;20076;-51
2023/12/19 04:25:36;;;;;;;5.65;2.72;;;;;;;;;;5127620;28;20020;-53
2023/12/19 04:28:03;;;;;;;4.68;2.58;;;;;;;;;;5126772;28;20316;-48
2023/12/19 04:30:29;;;;;;;5.68;2.25;;;;;;;;;;5127131;28;20047;-48
2023/12/19 04:32:56;;;;;;;4.15;2.70;;;;;;;;;;5127367;28;20020;-50
2023/12/19 04:35:22;;;;;;;4.10;2.33;;;;;;;;;;5127357;28;20019;-46
2023/12/19 04:37:49;;;;;;;4.30;2.70;;;;;;;;;;5127100;28;20027;-45
2023/12/19 04:40:16;;;;;;;4.63;2.42;;;;;;;;;;5127405;28;20026;-47
2023/12/19 04:42:42;;;;;;;5.38;2.30;;;;;;;;;;5127206;28;20049;-48
2023/12/19 04:45:09;;;;;;;3.08;2.35;;;;;;;;;;5126990;28;20035;-45
2023/12/19 04:47:36;;;;;;;6.43;2.30;;;;;;;;;;5127290;28;20019;-50
2023/12/19 04:50:03;;;;;;;4.47;2.40;;;;;;;;;;5126971;28;20022;-49
2023/12/19 04:52:30;;;;;;;5.97;2.88;;;;;;;;;;5126762;28;20027;-48
2023/12/19 04:54:56;;;;;;;5.03;2.40;;;;;;;;;;5126985;28;20012;-50
2023/12/19 04:57:23;;;;;;;2.60;2.40;;;;;;;;;;5126968;28;20367;-50
2023/12/19 04:59:49;;;;;;;5.60;2.40;;;;;;;;;;5126647;28;20073;-46
2023/12/19 05:02:16;;;;;;;3.67;2.22;;;;;;;;;;5126838;28;20043;-47
2023/12/19 05:04:43;;;;;;;3.78;2.38;;;;;;;;;;5126828;28;20016;-53
2023/12/19 05:07:10;;;;;;;4.65;2.55;;;;;;;;;;5126531;28;20035;-56
2023/12/19 05:09:37;;;;;;;6.00;2.70;;;;;;;;;;5126607;28;20320;-43
2023/12/19 05:12:05;;;;;;;3.53;2.40;;;;;;;;;;5126999;28;20035;-48
2023/12/19 05:14:31;;;;;;;4.50;2.40;;;;;;;;;;5126542;28;20024;-48
2023/12/19 05:16:59;;;;;;;5.43;2.85;;;;;;;;;;5126306;28;20077;-44
2023/12/19 05:19:26;;;;;;;6.68;2.53;;;;;;;;;;5126397;28;20073;-42
2023/12/19 05:21:53;;;;;;;4.55;2.50;;;;;;;;;;5126850;28;20031;-49
2023/12/19 05:24:19;;;;;;;4.93;2.50;;;;;;;;;;5126226;28;20023;-45
2023/12/19 05:26:46;;;;;;;7.63;2.63;;;;;;;;;;5126632;28;20058;-45
2023/12/19 05:29:13;;;;;;;4.85;2.70;;;;;;;;;;5126015;28;20111;-48
2023/12/19 05:31:40;;;;;;;5.28;2.58;;;;;;;;;;5116512;28;20106;-53
2023/12/19 05:34:09;;;;;;;5.65;2.33;;;;;;;;;;5105828;28;20027;-48
2023/12/19 05:36:37;;;;;;;4.97;2.53;;;;;;;;;;5106050;28;20028;-46
2023/12/19 05:39:04;;;;;;;5.20;2.28;;;;;;;;;;5104486;28;20363;-53
2023/12/19 05:41:30;;;;;;;2.97;2.22;;;;;;;;;;5105857;28;20020;-49
2023/12/19 05:43:59;;;;;;;3.45;2.30;;;;;;;;;;5105715;28;20032;-43
2023/12/19 05:46:27;;;;;;;6.35;2.60;;;;;;;;;;5105685;28;20031;-46
2023/12/19 05:48:53;;;;;;;6.53;2.40;;;;;;;;;;5105376;28;20050;-50
2023/12/19 05:51:20;;;;;;;4.90;2.40;;;;;;;;;;5105641;28;20039;-52
2023/12/19 05:53:46;;;;;;;5.55;2.50;;;;;;;;;;5105166;28;20016;-50
2023/12/19 05:56:13;;;;;;;7.13;2.75;;;;;;;;;;5105681;28;20076;-43
2023/12/19 05:58:40;;;;;;;3.20;2.30;;;;;;;;;;5105237;28;20020;-48
2023/12/19 06:01:07;;;;;;;3.85;2.58;;;;;;;;;;5104922;28;20036;-49
2023/12/19 06:03:33;;;;;;;5.32;2.47;;;;;;;;;;5105254;28;20036;-46
2023/12/19 06:06:00;;;;;;;7.43;2.50;;;;;;;;;;5105259;28;20036;-47
2023/12/19 06:08:26;;;;;;;2.75;2.13;;;;;;;;;;5104918;28;20016;-53
2023/12/19 06:10:53;;;;;;;5.20;2.60;;;;;;;;;;5105272;28;20028;-49
2023/12/19 06:13:20;;;;;;;4.35;2.47;;;;;;;;;;5104981;28;20024;-49
2023/12/19 06:15:46;;;;;;;6.35;2.67;;;;;;;;;;5104888;28;20051;-59
2023/12/19 06:18:15;;;;;;;6.57;2.42;;;;;;;;;;5104872;28;20022;-45
2023/12/19 06:20:42;;;;;;;4.22;2.50;;;;;;;;;;5104899;28;20032;-51
2023/12/19 06:23:09;;;;;;;3.92;2.53;;;;;;;;;;5104568;28;20208;-53
2023/12/19 06:25:38;;;;;;;3.45;2.45;;;;;;;;;;5104741;28;20027;-48
2023/12/19 06:28:05;;;;;;;5.78;2.67;;;;;;;;;;5104653;28;20339;-50
2023/12/19 06:30:32;;;;;;;4.57;2.80;;;;;;;;;;5104445;28;20096;-46
2023/12/19 06:32:58;;;;;;;4.43;2.67;;;;;;;;;;5104777;28;20020;-55
2023/12/19 06:35:25;;;;;;;6.10;2.40;;;;;;;;;;5104722;28;20316;-48
2023/12/19 06:37:52;;;;;;;5.80;2.47;;;;;;;;;;5104328;28;20023;-48
2023/12/19 06:40:18;;;;;;;4.97;2.28;;;;;;;;;;5104690;28;20405;-49
2023/12/19 06:42:45;;;;;;;3.33;2.60;;;;;;;;;;5104525;28;20054;-48
2023/12/19 06:45:12;;;;;;;3.22;2.45;;;;;;;;;;5104377;28;20027;-46
2023/12/19 06:47:40;;;;;;;3.00;2.20;;;;;;;;;;5104539;28;20016;-47
2023/12/19 06:50:07;;;;;;;4.55;2.40;;;;;;;;;;5103970;28;20248;-49
2023/12/19 06:52:33;;;;;;;4.65;2.38;;;;;;;;;;5104155;28;20075;-46
2023/12/19 06:55:00;;;;;;;4.30;2.78;;;;;;;;;;5104271;28;20058;-56
2023/12/19 06:57:28;;;;;;;5.60;2.45;;;;;;;;;;5104200;28;20254;-52
2023/12/19 06:59:54;;;;;;;4.03;2.30;;;;;;;;;;5104062;28;20027;-47
2023/12/19 07:02:21;;;;;;;4.93;2.47;;;;;;;;;;5104177;28;20016;-48
2023/12/19 07:04:48;;;;;;;3.50;2.50;;;;;;;;;;5104158;28;20324;-47
2023/12/19 07:07:15;;;;;;;4.85;2.60;;;;;;;;;;5103960;28;20032;-51
2023/12/19 07:09:42;;;;;;;7.60;2.60;;;;;;;;;;5104107;28;20027;-46
2023/12/19 07:12:09;;;;;;;6.15;2.72;;;;;;;;;;5104498;28;20208;-56
2023/12/19 07:14:35;;;;;;;6.50;2.53;;;;;;;;;;5103864;28;20022;-50
2023/12/19 07:17:02;;;;;;;4.75;2.60;;;;;;;;;;5104496;28;20020;-49
2023/12/19 07:19:28;;;;;;;5.28;2.55;;;;;;;;;;5104226;28;20020;-47
2023/12/19 07:21:55;;;;;;;4.00;2.42;;;;;;;;;;5104347;28;20027;-56
2023/12/19 07:24:22;;;;;;;3.33;2.60;;;;;;;;;;5104178;28;20259;-48
2023/12/19 07:26:48;;;;;;;5.90;2.28;;;;;;;;;;5104289;28;20324;-51
2023/12/19 07:29:15;;;;;;;5.55;2.58;;;;;;;;;;5103699;28;20039;-49
2023/12/19 07:31:41;;;;;;;3.35;2.17;;;;;;;;;;5104296;28;20044;-46
2023/12/19 07:34:08;;;;;;;4.35;2.28;;;;;;;;;;5103773;28;20251;-51
2023/12/19 07:36:35;;;;;;;6.30;2.60;;;;;;;;;;5104242;28;20024;-50
2023/12/19 07:39:03;;;;;;;4.53;2.38;;;;;;;;;;5103820;28;20022;-45
2023/12/19 07:41:31;;;;;;;3.42;2.25;;;;;;;;;;5104074;28;20077;-49
2023/12/19 07:43:58;;;;;;;4.35;2.30;;;;;;;;;;5103743;28;20023;-45
2023/12/19 07:46:25;;;;;;;4.20;2.20;;;;;;;;;;5103715;28;20129;-47
2023/12/19 07:48:52;;;;;;;4.07;2.22;;;;;;;;;;5103661;28;20091;-58
2023/12/19 07:51:21;;;;;;;3.67;2.47;;;;;;;;;;5104002;28;20087;-57
2023/12/19 07:53:48;;;;;;;6.05;2.30;;;;;;;;;;5103693;28;20032;-44
2023/12/19 07:56:15;;;;;;;2.78;2.33;;;;;;;;;;5104062;28;20043;-46
2023/12/19 07:58:42;;;;;;;6.93;2.40;;;;;;;;;;5103756;28;20023;-45
2023/12/19 08:01:12;;;;;;;4.13;2.75;;;;;;;;;;5103810;28;20031;-54
2023/12/19 08:03:40;;;;;;;5.40;2.88;;;;;;;;;;5106588;28;20024;-49
2023/12/19 08:06:06;;;;;;;5.53;2.80;;;;;;;;;;5107524;28;20032;-50
2023/12/19 08:08:33;;;;;;;4.25;2.70;;;;;;;;;;5107543;28;20024;-47
2023/12/19 08:11:00;;;;;;;6.03;2.40;;;;;;;;;;5107507;28;20077;-45
2023/12/19 08:13:26;;;;;;;5.55;2.55;;;;;;;;;;5107272;28;20224;-51
2023/12/19 08:15:53;;;;;;;5.68;2.60;;;;;;;;;;5107433;28;20028;-48
2023/12/19 08:18:20;;;;;;;5.22;2.30;;;;;;;;;;5107079;28;20079;-50
2023/12/19 08:20:46;;;;;;;5.40;2.38;;;;;;;;;;5107240;28;20239;-48
2023/12/19 08:23:13;;;;;;;8.55;2.58;;;;;;;;;;5106965;28;20016;-51
2023/12/19 08:25:41;;;;;;;5.03;2.60;;;;;;;;;;5107050;28;20103;-46
2023/12/19 08:28:11;;;;;;;5.68;2.58;;;;;;;;;;5106936;28;20321;-54
2023/12/19 08:30:40;;;;;;;7.65;2.80;;;;;;;;;;5106775;28;20068;-48
2023/12/19 08:33:07;;;;;;;4.75;2.80;;;;;;;;;;5106850;28;20267;-46
2023/12/19 08:35:33;;;;;;;5.88;2.60;;;;;;;;;;5107001;28;20229;-50
2023/12/19 08:38:00;;;;;;;5.53;2.67;;;;;;;;;;5106868;28;20031;-48
2023/12/19 08:40:27;;;;;;;4.68;2.88;;;;;;;;;;5106795;28;20259;-46
2023/12/19 08:42:56;;;;;;;5.68;2.70;;;;;;;;;;5106819;28;20076;-45
2023/12/19 08:45:23;;;;;;;3.45;2.63;;;;;;;;;;5106760;28;20039;-44
2023/12/19 08:47:50;;;;;;;4.70;2.80;;;;;;;;;;5106639;28;20024;-46
2023/12/19 08:50:17;;;;;;;4.85;2.75;;;;;;;;;;5106653;28;20312;-53
2023/12/19 08:52:44;;;;;;;3.72;2.45;;;;;;;;;;5106520;28;20028;-44
2023/12/19 08:55:11;;;;;;;4.40;2.45;;;;;;;;;;5106468;28;20028;-46
2023/12/19 08:57:45;;;;;;;4.57;2.80;;;;;;;;;;5106385;28;20016;-45
2023/12/19 09:00:13;;;;;;;8.02;2.60;;;;;;;;;;5106516;28;20035;-45
2023/12/19 09:02:42;;;;;;;5.80;2.65;;;;;;;;;;5106382;28;20040;-45
2023/12/19 09:05:12;;;;;;;5.82;2.92;;;;;;;;;;5106174;28;20234;-50
2023/12/19 09:07:39;;;;;;;5.35;3.10;;;;;;;;;;5106186;28;20020;-55
2023/12/19 09:10:06;;;;;;;4.25;2.92;;;;;;;;;;5106110;28;20062;-50
2023/12/19 09:12:34;;;;;;;5.22;2.97;;;;;;;;;;5105965;28;20040;-47
2023/12/19 09:15:02;;;;;;;5.13;2.95;;;;;;;;;;5105954;28;20254;-47
2023/12/19 09:17:29;;;;;;;7.55;3.08;;;;;;;;;;5105994;28;20020;-47
2023/12/19 09:19:56;;;;;;;5.63;2.92;;;;;;;;;;5105803;28;20249;-48
2023/12/19 09:22:23;;;;;;;5.53;3.15;;;;;;;;;;5105902;28;20051;-48
2023/12/19 09:24:50;;;;;;;3.80;2.80;;;;;;;;;;5105881;28;20028;-49
2023/12/19 09:27:16;;;;;;;5.63;3.20;;;;;;;;;;5105540;28;20016;-48
2023/12/19 09:29:43;;;;;;;6.25;3.00;;;;;;;;;;5105682;28;20035;-51
2023/12/19 09:32:11;;;;;;;4.90;3.25;;;;;;;;;;5105764;28;20381;-51
2023/12/19 09:34:41;;;;;;;6.95;3.33;;;;;;;;;;5105561;28;20031;-51
2023/12/19 09:37:07;;;;;;;6.68;3.28;;;;;;;;;;5106171;28;20028;-45
2023/12/19 09:39:34;;;;;;;3.90;2.92;;;;;;;;;;5105649;28;20055;-49
2023/12/19 09:42:01;;;;;;;4.13;3.05;;;;;;;;;;5105325;28;20024;-46
2023/12/19 09:44:28;;;;;;;5.75;3.30;;;;;;;;;;5105458;28;20020;-52
2023/12/19 09:46:55;;;;;;;6.90;2.95;;;;;;;;;;5105870;28;20077;-54
2023/12/19 09:49:22;;;;;;;6.65;3.42;;;;;;;;;;5105212;28;20020;-50
2023/12/19 09:51:55;;;;;;;6.07;3.00;;;;;;;;;;5105638;28;20028;-52
2023/12/19 09:54:22;;;;;;;8.07;3.45;;;;;;;;;;5105232;28;20024;-51
2023/12/19 09:56:50;;;;;;;6.93;3.30;;;;;;;;;;5105606;28;20023;-48
2023/12/19 09:59:19;;;;;;;6.22;3.38;;;;;;;;;;5105397;28;20032;-50
2023/12/19 10:01:46;;;;;;;7.57;3.28;;;;;;;;;;5105699;28;20038;-47
2023/12/19 10:04:16;;;;;;;5.85;3.33;;;;;;;;;;5104953;28;20304;-45
2023/12/19 10:06:56;;;;;;;7.22;3.38;;;;;;;;;;5105401;28;20074;-49
2023/12/19 10:09:23;;;;;;;5.25;3.17;;;;;;;;;;5104901;28;20035;-45
2023/12/19 10:12:06;;;;;;;5.68;3.00;;;;;;;;;;5105295;28;20051;-47
2023/12/19 10:14:33;;;;;;;6.57;3.30;;;;;;;;;;5104853;28;20193;-49
2023/12/19 10:17:00;;;;;;;8.90;3.28;;;;;;;;;;5104759;28;20312;-55
2023/12/19 10:19:30;;;;;;;11.13;3.28;;;;;;;;;;5104712;28;20051;-47
2023/12/19 10:22:07;;;;;;;6.70;3.00;;;;;;;;;;5104531;28;20030;-50
2023/12/19 10:24:34;;;;;;;7.43;3.00;;;;;;;;;;5104331;28;20023;-46
2023/12/19 10:27:01;;;;;;;8.85;3.30;;;;;;;;;;5105167;28;20081;-50
2023/12/19 10:29:36;;;;;;;9.75;2.95;;;;;;;;;;5104465;28;20093;-51
2023/12/19 10:32:16;;;;;;;7.28;3.00;;;;;;;;;;5105009;28;20349;-52
2023/12/19 10:34:43;;;;;;;8.35;3.20;;;;;;;;;;5104443;28;20212;-51
2023/12/19 10:37:11;;;;;;;7.40;3.38;;;;;;;;;;5104529;28;20069;-45
2023/12/19 10:39:39;;;;;;;6.70;3.10;;;;;;;;;;5104621;28;20219;-51
2023/12/19 10:42:05;;;;;;;7.60;3.30;;;;;;;;;;5104892;28;20039;-49
2023/12/19 10:44:33;;;;;;;7.70;3.53;;;;;;;;;;5104543;28;20054;-50
2023/12/19 10:47:03;;;;;;;7.85;3.08;;;;;;;;;;5104954;28;20312;-46
2023/12/19 10:49:30;;;;;;;8.95;3.38;;;;;;;;;;5104175;28;20320;-53
2023/12/19 10:51:58;;;;;;;14.35;3.70;;;;;;;;;;5104778;28;20328;-51
2023/12/19 10:54:25;;;;;;;7.00;3.47;;;;;;;;;;5087367;28;20028;-47
2023/12/19 10:57:06;;;;;;;11.75;3.50;;;;;;;;;;5084325;28;20032;-52
2023/12/19 10:59:45;;;;;;;7.10;2.90;;;;;;;;;;5083948;28;20225;-45
2023/12/19 11:02:15;;;;;;;10.57;3.42;;;;;;;;;;5100196;28;20358;-52
2023/12/19 11:04:42;;;;;;;12.30;3.50;;;;;;;;;;5103677;28;20034;-45
2023/12/19 11:07:12;;;;;;;5.82;3.20;;;;;;;;;;5102226;28;20035;-50
2023/12/19 11:09:43;;;;;;;11.18;3.97;;;;;;;;;;5104101;28;20320;-54
2023/12/19 11:12:11;;;;;;;12.20;4.18;;;;;;;;;;5097946;28;20024;-53
2023/12/19 11:14:37;;;;;;;12.55;4.50;;;;;;;;;;5100566;28;20028;-45
2023/12/19 11:17:16;;;;;;;17.33;6.47;;;;;;;;;;5099323;28;20021;-52
2023/12/19 11:19:50;;;;;;;25.73;8.10;;;;;;;;;;5092517;28;20024;-47
2023/12/19 11:22:40;;;;;;;20.42;7.57;;;;;;;;;;5092517;28;20077;-47
2023/12/19 11:25:27;;;;;;;28.30;11.75;;;;;;;;;;5085207;28;20055;-45
2023/12/19 11:27:56;;;;;;;46.05;27.35;;;;;;;;;;5080136;28;20039;-48
2023/12/19 11:30:40;;;;;;;26.67;11.25;;;;;;;;;;5092278;28;20029;-56
2023/12/19 11:33:11;;;;;;;17.58;8.90;;;;;;;;;;5093027;28;20130;-52
2023/12/19 11:35:38;;;;;;;12.60;6.00;;;;;;;;;;5092325;28;20043;-53
2023/12/19 11:38:20;;;;;;;12.40;5.75;;;;;;;;;;5100544;28;20028;-48
2023/12/19 11:40:53;;;;;;;12.23;4.40;;;;;;;;;;5107810;28;20039;-57
2023/12/19 11:43:29;;;;;;;10.55;4.65;;;;;;;;;;5107660;28;20042;-49
2023/12/19 11:45:56;;;;;;;16.55;4.60;;;;;;;;;;5107698;28;20032;-52
2023/12/19 11:48:41;;;;;;;12.70;4.28;;;;;;;;;;5106939;28;20095;-47
2023/12/19 11:51:10;;;;;;;7.93;4.10;;;;;;;;;;5107176;28;20032;-52
2023/12/19 11:53:37;;;;;;;12.38;4.07;;;;;;;;;;5107236;28;20039;-51
2023/12/19 11:56:09;;;;;;;13.38;4.50;;;;;;;;;;5107791;28;20024;-48
2023/12/19 11:58:36;;;;;;;17.23;4.20;;;;;;;;;;5107614;28;20088;-54
2023/12/19 12:01:04;;;;;;;12.75;4.78;;;;;;;;;;5107532;28;20216;-50
2023/12/19 12:03:31;;;;;;;9.15;4.10;;;;;;;;;;5107352;28;20039;-49
2023/12/19 12:05:58;;;;;;;13.40;4.40;;;;;;;;;;5107712;28;20070;-51
2023/12/19 12:08:24;;;;;;;11.90;4.22;;;;;;;;;;5107146;28;20031;-45
2023/12/19 12:11:01;;;;;;;10.30;4.47;;;;;;;;;;5107330;28;20145;-50
2023/12/19 12:13:32;;;;;;;7.68;3.85;;;;;;;;;;5107000;28;20067;-54
2023/12/19 12:15:59;;;;;;;7.93;4.35;;;;;;;;;;5107448;28;20051;-54
2023/12/19 12:18:27;;;;;;;6.45;3.75;;;;;;;;;;5107197;28;20012;-52
2023/12/19 12:20:55;;;;;;;13.73;4.35;;;;;;;;;;5107364;28;20095;-49
2023/12/19 12:23:22;;;;;;;7.00;4.20;;;;;;;;;;5107192;28;20036;-48
2023/12/19 12:25:56;;;;;;;10.55;3.97;;;;;;;;;;5107119;28;20300;-51
2023/12/19 12:28:26;;;;;;;7.63;4.03;;;;;;;;;;5106692;28;20028;-48
2023/12/19 12:31:03;;;;;;;9.02;3.83;;;;;;;;;;5107006;28;20073;-53
2023/12/19 12:33:31;;;;;;;7.35;3.80;;;;;;;;;;5106715;28;20020;-50
2023/12/19 12:35:58;;;;;;;7.53;3.75;;;;;;;;;;5106988;28;20028;-47
2023/12/19 12:38:25;;;;;;;7.72;3.85;;;;;;;;;;5106850;28;20012;-50
2023/12/19 12:41:00;;;;;;;8.70;4.20;;;;;;;;;;5106706;28;20028;-51
2023/12/19 12:43:27;;;;;;;9.90;3.80;;;;;;;;;;5106636;28;20370;-48
2023/12/19 12:46:08;;;;;;;9.65;3.97;;;;;;;;;;5106792;28;20035;-51
2023/12/19 12:48:37;;;;;;;8.73;3.97;;;;;;;;;;5106128;28;20027;-51
2023/12/19 12:51:07;;;;;;;5.82;3.80;;;;;;;;;;5106724;28;20032;-52
2023/12/19 12:53:34;;;;;;;6.28;3.70;;;;;;;;;;5106297;28;20073;-51
2023/12/19 12:56:14;;;;;;;5.80;3.35;;;;;;;;;;5106645;28;20039;-51
2023/12/19 12:58:41;;;;;;;7.20;3.47;;;;;;;;;;5106337;28;20020;-53
2023/12/19 13:01:09;;;;;;;7.22;3.60;;;;;;;;;;5106106;28;20034;-48
2023/12/19 13:03:36;;;;;;;8.95;3.40;;;;;;;;;;5106279;28;20028;-51
2023/12/19 13:06:04;;;;;;;7.18;3.60;;;;;;;;;;5106556;28;20039;-52
2023/12/19 13:08:31;;;;;;;4.78;3.58;;;;;;;;;;5106169;28;20240;-50
2023/12/19 13:11:00;;;;;;;7.30;3.58;;;;;;;;;;5106250;28;20030;-50
2023/12/19 13:13:29;;;;;;;4.90;3.45;;;;;;;;;;5106012;28;20308;-48
2023/12/19 13:15:56;;;;;;;7.60;3.13;;;;;;;;;;5106197;28;20095;-50
2023/12/19 13:18:23;;;;;;;6.65;3.42;;;;;;;;;;5106036;28;20012;-50
2023/12/19 13:20:50;;;;;;;4.00;3.50;;;;;;;;;;5105713;28;20095;-54
2023/12/19 13:23:18;;;;;;;6.60;3.33;;;;;;;;;;5105825;28;20024;-46
2023/12/19 13:25:44;;;;;;;7.32;3.78;;;;;;;;;;5105876;28;20029;-52
2023/12/19 13:28:11;;;;;;;4.57;3.00;;;;;;;;;;5105521;28;20082;-51
2023/12/19 13:30:39;;;;;;;5.63;3.17;;;;;;;;;;5105617;28;20058;-50
2023/12/19 13:33:08;;;;;;;8.18;3.33;;;;;;;;;;5105679;28;20008;-45
2023/12/19 13:35:35;;;;;;;4.60;3.20;;;;;;;;;;5105631;28;20023;-44
2023/12/19 13:38:02;;;;;;;6.15;3.25;;;;;;;;;;5105612;28;20343;-52
2023/12/19 13:40:29;;;;;;;6.95;3.40;;;;;;;;;;5105709;28;20023;-45
2023/12/19 13:42:56;;;;;;;5.20;3.13;;;;;;;;;;5105366;28;20069;-52
2023/12/19 13:45:24;;;;;;;5.80;3.40;;;;;;;;;;5105523;28;20039;-45
2023/12/19 13:47:51;;;;;;;7.60;3.60;;;;;;;;;;5105491;28;20064;-46
2023/12/19 13:50:18;;;;;;;6.93;3.20;;;;;;;;;;5105358;28;20032;-51
2023/12/19 13:52:44;;;;;;;4.45;3.20;;;;;;;;;;5105364;28;20411;-47
2023/12/19 13:55:11;;;;;;;7.72;3.60;;;;;;;;;;5105395;28;20284;-53
2023/12/19 13:57:39;;;;;;;6.97;3.65;;;;;;;;;;5105230;28;20055;-49
2023/12/19 14:00:07;;;;;;;5.50;3.60;;;;;;;;;;5104446;28;20063;-56
2023/12/19 14:02:37;;;;;;;7.85;3.72;;;;;;;;;;5105216;28;20036;-54
2023/12/19 14:05:07;;;;;;;7.75;3.33;;;;;;;;;;5105033;28;20020;-51
2023/12/19 14:07:34;;;;;;;4.70;3.15;;;;;;;;;;5105130;28;20130;-50
2023/12/19 14:10:02;;;;;;;8.25;4.00;;;;;;;;;;5104996;28;20020;-53
2023/12/19 14:12:32;;;;;;;6.05;3.75;;;;;;;;;;5104892;28;20020;-52
2023/12/19 14:14:59;;;;;;;6.95;3.80;;;;;;;;;;5104992;28;20024;-59
2023/12/19 14:17:25;;;;;;;8.02;3.60;;;;;;;;;;5104823;28;20024;-49
2023/12/19 14:19:52;;;;;;;8.43;3.63;;;;;;;;;;5104677;28;20079;-43
2023/12/19 14:22:20;;;;;;;5.90;3.90;;;;;;;;;;5104762;28;20316;-51
2023/12/19 14:24:46;;;;;;;5.05;3.60;;;;;;;;;;5104702;28;20193;-52
2023/12/19 14:27:13;;;;;;;6.38;3.22;;;;;;;;;;5104756;28;20028;-44
2023/12/19 14:29:40;;;;;;;6.15;3.58;;;;;;;;;;5104608;28;20062;-50
2023/12/19 14:32:07;;;;;;;8.30;3.65;;;;;;;;;;5105005;28;20036;-54
2023/12/19 14:34:34;;;;;;;7.20;3.60;;;;;;;;;;5104485;28;20101;-47
2023/12/19 14:37:02;;;;;;;5.28;3.22;;;;;;;;;;5104992;28;20061;-47
2023/12/19 14:39:29;;;;;;;4.55;3.67;;;;;;;;;;5104520;28;20016;-50
2023/12/19 14:41:56;;;;;;;4.68;3.70;;;;;;;;;;5104806;28;20177;-45
2023/12/19 14:44:22;;;;;;;4.88;3.55;;;;;;;;;;5104495;28;20028;-44